Time;durP1;ratioP1;P1;durP2;ratioP2;P2;SDS_P1;SDS_P2;PMS_P1;PMS_P2;Temp;Humidity;BMP_temperature;BMP_pressure;BME280_temperature;BME280_humidity;BME280_pressure;Samples;Min_cycle;Max_cycle;Signal;HPM_P1;HPM_P2
2021/01/28 00:02:01;;;;;;;13.33;6.37;;;4.30;99.90;;;;;;5017733;28;20225;-79
2021/01/28 00:04:26;;;;;;;14.33;8.80;;;4.30;99.90;;;;;;5017558;28;20189;-78
2021/01/28 00:06:52;;;;;;;16.70;8.33;;;4.40;99.90;;;;;;5019514;28;20823;-79
2021/01/28 00:09:18;;;;;;;14.63;6.87;;;4.40;99.90;;;;;;5017139;28;20507;-79
2021/01/28 00:11:46;;;;;;;13.13;6.63;;;4.40;99.90;;;;;;5018972;28;20187;-79
2021/01/28 00:14:12;;;;;;;12.98;7.35;;;4.40;99.90;;;;;;5034163;28;20181;-79
2021/01/28 00:16:37;;;;;;;9.70;6.80;;;4.40;99.90;;;;;;5019314;28;20209;-80
2021/01/28 00:19:11;;;;;;;11.97;7.60;;;4.40;99.90;;;;;;5017849;28;20180;-79
2021/01/28 00:21:40;;;;;;;9.00;6.63;;;4.40;99.90;;;;;;5018956;28;20167;-79
2021/01/28 00:24:06;;;;;;;9.75;6.55;;;4.40;99.90;;;;;;5016729;28;20205;-79
2021/01/28 00:26:31;;;;;;;11.83;7.10;;;4.40;99.90;;;;;;5018701;28;20194;-79
2021/01/28 00:28:58;;;;;;;10.50;6.93;;;4.40;99.90;;;;;;5019566;28;20421;-79
2021/01/28 00:31:26;;;;;;;9.48;6.30;;;4.30;99.90;;;;;;5017542;28;20174;-79
2021/01/28 00:33:51;;;;;;;13.48;7.93;;;4.30;99.90;;;;;;5017274;28;20179;-79
2021/01/28 00:36:17;;;;;;;10.73;8.33;;;4.30;99.90;;;;;;5015405;28;20216;-80
2021/01/28 00:38:43;;;;;;;10.90;7.30;;;4.30;99.90;;;;;;5015896;28;20181;-79
2021/01/28 00:41:10;;;;;;;10.40;6.73;;;4.30;99.90;;;;;;5016515;28;20197;-79
2021/01/28 00:43:37;;;;;;;9.88;6.45;;;4.30;99.90;;;;;;5015923;28;20193;-79
2021/01/28 00:46:04;;;;;;;14.30;7.40;;;4.20;99.90;;;;;;5016335;28;20198;-79
2021/01/28 00:48:30;;;;;;;11.75;7.72;;;4.20;99.90;;;;;;5015302;28;20633;-79
2021/01/28 00:50:58;;;;;;;10.30;6.80;;;4.20;99.90;;;;;;5016570;28;20174;-79
2021/01/28 00:53:24;;;;;;;13.73;7.50;;;4.20;99.90;;;;;;5016818;28;20982;-80
2021/01/28 00:55:50;;;;;;;12.15;8.15;;;4.20;99.90;;;;;;5015024;28;20216;-80
2021/01/28 00:58:18;;;;;;;10.53;7.00;;;4.30;99.90;;;;;;5015336;28;20178;-79
2021/01/28 01:00:45;;;;;;;13.32;8.57;;;4.40;99.90;;;;;;5013827;28;20524;-80
2021/01/28 01:03:13;;;;;;;13.85;7.78;;;4.40;99.90;;;;;;5015011;28;20260;-80
2021/01/28 01:05:39;;;;;;;11.68;7.78;;;4.30;99.90;;;;;;5017563;28;20201;-80
2021/01/28 01:08:14;;;;;;;11.00;6.75;;;4.40;99.90;;;;;;5000699;28;20178;-79
2021/01/28 01:10:43;;;;;;;15.60;8.60;;;4.40;99.90;;;;;;5032747;28;20181;-80
2021/01/28 01:13:13;;;;;;;13.77;7.97;;;4.40;99.90;;;;;;5018193;28;20165;-80
2021/01/28 01:15:39;;;;;;;12.60;7.90;;;4.40;99.90;;;;;;5001079;28;20217;-80
2021/01/28 01:18:07;;;;;;;12.57;8.07;;;4.50;99.90;;;;;;4999140;28;20224;-80
2021/01/28 01:20:32;;;;;;;11.80;7.47;;;4.50;99.90;;;;;;5017735;28;20158;-79
2021/01/28 01:23:01;;;;;;;11.63;7.47;;;4.50;99.90;;;;;;5016417;28;20228;-80
2021/01/28 01:25:27;;;;;;;12.50;8.63;;;4.50;99.90;;;;;;5016155;28;20783;-79
2021/01/28 01:27:52;;;;;;;12.50;7.90;;;4.40;99.90;;;;;;5015682;28;20178;-80
2021/01/28 01:30:20;;;;;;;13.53;8.60;;;4.50;99.90;;;;;;5015749;28;20182;-80
2021/01/28 01:32:46;;;;;;;13.35;7.90;;;4.40;99.90;;;;;;5016293;28;20170;-79
2021/01/28 01:35:13;;;;;;;10.43;8.20;;;4.40;99.90;;;;;;5013845;28;20201;-80
2021/01/28 01:37:39;;;;;;;12.70;7.57;;;4.40;99.90;;;;;;5015024;28;20174;-79
2021/01/28 01:40:06;;;;;;;14.70;9.17;;;4.50;99.90;;;;;;5014629;28;20177;-79
2021/01/28 01:42:32;;;;;;;13.68;8.60;;;4.50;99.90;;;;;;5015994;28;20466;-79
2021/01/28 01:45:05;;;;;;;11.80;7.77;;;4.50;99.90;;;;;;5016725;28;20200;-79
2021/01/28 01:47:57;;;;;;;12.30;7.97;;;4.50;99.90;;;;;;5015725;28;20789;-79
2021/01/28 01:50:32;;;;;;;10.63;7.72;;;4.40;99.90;;;;;;5016064;28;20194;-79
2021/01/28 01:53:00;;;;;;;12.35;8.02;;;4.50;99.90;;;;;;5019041;28;20196;-78
2021/01/28 01:55:28;;;;;;;12.25;7.90;;;4.50;99.90;;;;;;5021083;28;20293;-79
2021/01/28 01:57:56;;;;;;;10.70;6.72;;;4.50;99.90;;;;;;5023755;28;20170;-80
2021/01/28 02:00:22;;;;;;;10.75;7.40;;;4.50;99.90;;;;;;5013385;28;20182;-79
2021/01/28 02:02:55;;;;;;;12.05;7.15;;;4.60;99.90;;;;;;5024642;28;20189;-79
2021/01/28 02:05:29;;;;;;;12.38;7.47;;;4.60;99.90;;;;;;5025329;28;20185;-78
2021/01/28 02:07:55;;;;;;;13.43;7.97;;;4.60;99.90;;;;;;5022519;28;20182;-79
2021/01/28 02:10:23;;;;;;;13.13;8.45;;;4.60;99.90;;;;;;5023787;28;20166;-79
2021/01/28 02:12:50;;;;;;;13.30;8.38;;;4.70;99.90;;;;;;5026798;28;20166;-80
2021/01/28 02:15:17;;;;;;;12.07;6.82;;;4.70;99.90;;;;;;4998880;28;20202;-80
2021/01/28 02:17:44;;;;;;;12.35;7.65;;;4.70;99.90;;;;;;5014690;28;20178;-80
2021/01/28 02:20:22;;;;;;;12.50;7.82;;;4.70;99.90;;;;;;5016716;28;20166;-80
2021/01/28 02:23:02;;;;;;;11.20;7.57;;;4.70;99.90;;;;;;5031220;28;20170;-80
2021/01/28 02:25:31;;;;;;;12.60;8.20;;;4.80;99.90;;;;;;5030832;28;20629;-79
2021/01/28 02:28:17;;;;;;;13.07;8.05;;;4.80;99.90;;;;;;5015686;28;20177;-80
2021/01/28 02:30:43;;;;;;;11.73;8.15;;;4.70;99.90;;;;;;5014181;28;20186;-80
2021/01/28 02:33:11;;;;;;;10.20;7.30;;;4.60;99.90;;;;;;5014740;28;20174;-79
2021/01/28 02:35:38;;;;;;;17.33;8.15;;;4.40;99.90;;;;;;5014893;28;20202;-80
2021/01/28 02:38:10;;;;;;;11.52;6.43;;;4.40;99.90;;;;;;5014489;28;20692;-80
2021/01/28 02:40:37;;;;;;;10.63;7.15;;;4.60;99.90;;;;;;5015661;28;20170;-80
2021/01/28 02:43:03;;;;;;;12.93;7.07;;;4.50;99.90;;;;;;5020869;28;20173;-80
2021/01/28 02:45:36;;;;;;;13.40;7.73;;;4.50;99.90;;;;;;5017197;28;20202;-80
2021/01/28 02:48:07;;;;;;;15.77;7.85;;;4.60;99.90;;;;;;5015536;28;20466;-80
2021/01/28 02:50:44;;;;;;;10.77;7.55;;;4.70;99.90;;;;;;5017102;28;20174;-80
2021/01/28 02:53:10;;;;;;;13.15;8.40;;;4.80;99.90;;;;;;4999068;28;20173;-80
2021/01/28 02:55:36;;;;;;;13.97;7.30;;;4.80;99.90;;;;;;5014449;28;20428;-80
2021/01/28 02:58:01;;;;;;;10.70;6.93;;;4.80;99.90;;;;;;5014904;28;20178;-80
2021/01/28 03:00:34;;;;;;;17.07;9.13;;;4.80;99.90;;;;;;5019126;28;20178;-79
2021/01/28 03:03:08;;;;;;;9.65;7.88;;;4.70;99.90;;;;;;5019353;28;20232;-79
2021/01/28 03:05:34;;;;;;;10.85;7.55;;;4.70;99.90;;;;;;5019127;28;20660;-80
2021/01/28 03:08:00;;;;;;;9.37;7.20;;;4.80;99.90;;;;;;5019524;28;20178;-79
2021/01/28 03:10:26;;;;;;;11.57;6.50;;;4.90;99.90;;;;;;5018883;28;20401;-80
2021/01/28 03:12:52;;;;;;;13.52;7.60;;;4.90;99.90;;;;;;5020175;28;20173;-80
2021/01/28 03:15:23;;;;;;;12.00;6.40;;;4.90;99.90;;;;;;5020573;28;20193;-80
2021/01/28 03:17:49;;;;;;;13.40;8.02;;;5.00;99.90;;;;;;5018425;28;20170;-80
2021/01/28 03:20:15;;;;;;;10.52;6.03;;;4.90;99.90;;;;;;5017872;28;20175;-79
2021/01/28 03:22:41;;;;;;;10.30;6.65;;;4.80;99.90;;;;;;5017572;28;20897;-79
2021/01/28 03:25:09;;;;;;;11.30;7.20;;;4.80;99.90;;;;;;5017861;28;20178;-79
2021/01/28 03:27:35;;;;;;;14.27;7.78;;;4.80;99.90;;;;;;5017383;28;20637;-80
2021/01/28 03:30:02;;;;;;;9.57;6.40;;;4.80;99.90;;;;;;5018362;28;20228;-79
2021/01/28 03:32:28;;;;;;;10.05;6.70;;;4.60;99.90;;;;;;5019894;28;20405;-80
2021/01/28 03:34:54;;;;;;;9.70;6.13;;;4.60;99.90;;;;;;5017783;28;20213;-80
2021/01/28 03:37:19;;;;;;;12.23;6.87;;;4.60;99.90;;;;;;5018576;28;20216;-79
2021/01/28 03:39:45;;;;;;;12.47;8.27;;;4.50;99.90;;;;;;5016833;28;20533;-79
2021/01/28 03:42:10;;;;;;;11.80;7.00;;;4.40;99.90;;;;;;5018352;28;20170;-80
2021/01/28 03:44:36;;;;;;;11.67;6.97;;;4.60;99.90;;;;;;5016649;28;20533;-78
2021/01/28 03:47:02;;;;;;;16.10;8.10;;;4.80;99.90;;;;;;5016268;28;20225;-79
2021/01/28 03:49:27;;;;;;;12.47;6.80;;;4.80;99.90;;;;;;5015068;28;20170;-79
2021/01/28 03:51:53;;;;;;;11.80;7.13;;;4.60;99.90;;;;;;5014826;28;20218;-79
2021/01/28 03:54:18;;;;;;;14.40;7.37;;;4.70;99.90;;;;;;5017115;28;20170;-80
2021/01/28 03:56:44;;;;;;;14.80;6.77;;;4.90;99.90;;;;;;5018063;28;20685;-79
2021/01/28 03:59:09;;;;;;;10.90;6.70;;;4.90;99.90;;;;;;5017774;28;20283;-79
2021/01/28 04:01:35;;;;;;;12.30;7.07;;;4.90;99.90;;;;;;5018068;28;20564;-79
2021/01/28 04:04:00;;;;;;;13.87;7.97;;;4.80;99.90;;;;;;5018279;28;20189;-79
2021/01/28 04:06:26;;;;;;;12.30;7.87;;;4.80;99.90;;;;;;5016622;28;20293;-79
2021/01/28 04:08:52;;;;;;;13.53;7.53;;;4.60;99.90;;;;;;5000342;28;20658;-80
2021/01/28 04:11:17;;;;;;;10.63;7.13;;;4.60;99.90;;;;;;5017864;28;20178;-79
2021/01/28 04:13:46;;;;;;;12.37;7.30;;;4.50;99.90;;;;;;5018794;28;20213;-80
2021/01/28 04:16:11;;;;;;;11.38;6.75;;;4.50;99.90;;;;;;5033327;28;20210;-80
2021/01/28 04:18:37;;;;;;;10.40;7.40;;;4.50;99.90;;;;;;5018923;28;20578;-80
2021/01/28 04:21:03;;;;;;;11.47;8.13;;;4.70;99.90;;;;;;5019099;28;20197;-80
2021/01/28 04:23:28;;;;;;;13.60;8.73;;;4.80;99.90;;;;;;5020174;28;20170;-80
2021/01/28 04:25:54;;;;;;;10.07;7.07;;;4.80;99.90;;;;;;5018347;28;20547;-80
2021/01/28 04:28:19;;;;;;;8.67;5.80;;;4.70;99.90;;;;;;5001417;28;20189;-78
2021/01/28 04:30:45;;;;;;;14.83;7.07;;;4.80;99.90;;;;;;5018859;28;20178;-80
2021/01/28 04:33:11;;;;;;;13.30;7.90;;;4.80;99.90;;;;;;5017724;28;20205;-80
2021/01/28 04:35:37;;;;;;;12.73;7.57;;;4.70;99.90;;;;;;5001158;28;20241;-79
2021/01/28 04:38:02;;;;;;;12.15;6.63;;;4.80;99.90;;;;;;5017933;28;20174;-81
2021/01/28 04:40:36;;;;;;;14.03;7.50;;;4.80;99.90;;;;;;5016835;28;20656;-78
2021/01/28 04:46:10;;;;;;;11.73;6.25;;;4.70;99.90;;;;;;5012518;28;20205;-79
2021/01/28 04:48:37;;;;;;;12.32;8.07;;;4.70;99.90;;;;;;5016974;28;20273;-79
2021/01/28 04:51:04;;;;;;;14.35;7.93;;;4.70;99.90;;;;;;5016065;28;20186;-80
2021/01/28 04:53:38;;;;;;;12.50;7.10;;;4.80;99.90;;;;;;5016544;28;20490;-79
2021/01/28 04:56:13;;;;;;;11.80;8.07;;;4.80;99.90;;;;;;5017939;28;20569;-80
2021/01/28 04:58:38;;;;;;;12.15;7.38;;;4.80;99.90;;;;;;5017306;28;20185;-79
2021/01/28 05:01:04;;;;;;;12.53;7.33;;;4.80;99.90;;;;;;5017953;28;20170;-79
2021/01/28 05:03:47;;;;;;;11.03;7.03;;;4.90;99.90;;;;;;5015587;28;20380;-79
2021/01/28 05:06:13;;;;;;;11.05;7.65;;;4.90;99.90;;;;;;5000952;28;20419;-79
2021/01/28 05:08:38;;;;;;;8.10;5.65;;;4.80;99.90;;;;;;5002061;28;20182;-78
2021/01/28 05:11:28;;;;;;;10.17;5.90;;;4.70;99.90;;;;;;5016148;28;20197;-81
2021/01/28 05:13:54;;;;;;;12.07;7.10;;;4.80;99.90;;;;;;5015456;28;20178;-79
2021/01/28 05:16:41;;;;;;;10.23;7.00;;;4.70;99.90;;;;;;5017284;28;20292;-79
2021/01/28 05:19:24;;;;;;;11.95;7.43;;;4.70;99.90;;;;;;5017695;28;20436;-80
2021/01/28 05:22:26;;;;;;;12.32;7.22;;;4.80;99.90;;;;;;5016856;28;20166;-80
2021/01/28 05:24:55;;;;;;;14.77;7.35;;;4.80;99.90;;;;;;5012241;28;20181;-80
2021/01/28 05:27:23;;;;;;;12.30;7.10;;;4.80;99.90;;;;;;5000664;28;20201;-81
2021/01/28 05:29:50;;;;;;;11.73;7.32;;;4.70;99.90;;;;;;5033510;28;20174;-80
2021/01/28 05:32:41;;;;;;;13.63;7.38;;;4.70;99.90;;;;;;5016256;28;20676;-80
2021/01/28 05:35:25;;;;;;;9.30;6.95;;;4.80;99.90;;;;;;5017725;28;20194;-80
2021/01/28 05:38:22;;;;;;;12.07;7.63;;;4.80;99.90;;;;;;5032633;28;20181;-80
2021/01/28 05:40:57;;;;;;;13.07;7.40;;;5.00;99.90;;;;;;5015878;28;20232;-80
2021/01/28 05:43:24;;;;;;;12.45;7.57;;;5.00;99.90;;;;;;5016215;28;20174;-79
2021/01/28 05:45:50;;;;;;;13.85;8.38;;;4.90;99.90;;;;;;5015678;28;20232;-80
2021/01/28 05:48:21;;;;;;;10.20;7.00;;;4.90;99.90;;;;;;5016166;28;20174;-79
2021/01/28 05:51:01;;;;;;;14.52;7.90;;;4.90;99.90;;;;;;5031926;28;20174;-79
2021/01/28 05:53:26;;;;;;;13.90;7.20;;;4.80;99.90;;;;;;5016195;28;20205;-79
2021/01/28 05:55:52;;;;;;;13.77;7.87;;;4.80;99.90;;;;;;5014788;28;20697;-79
2021/01/28 05:58:42;;;;;;;16.35;7.35;;;4.80;99.90;;;;;;5014711;28;20186;-79
2021/01/28 06:01:26;;;;;;;13.32;8.68;;;4.90;99.90;;;;;;5015633;28;20181;-80
2021/01/28 06:04:03;;;;;;;13.98;9.40;;;5.10;99.90;;;;;;5016055;28;20531;-79
2021/01/28 06:06:46;;;;;;;13.68;8.75;;;5.20;99.90;;;;;;5030532;28;20692;-79
2021/01/28 06:09:32;;;;;;;12.15;6.97;;;5.10;99.90;;;;;;5030918;28;20178;-80
2021/01/28 06:12:25;;;;;;;12.65;6.15;;;5.10;99.90;;;;;;5015239;28;20253;-79
2021/01/28 06:15:21;;;;;;;16.80;8.10;;;5.00;99.90;;;;;;5014559;28;20198;-79
2021/01/28 06:17:55;;;;;;;13.15;8.93;;;5.00;99.90;;;;;;5015349;28;20162;-79
2021/01/28 06:20:39;;;;;;;17.33;9.40;;;4.90;99.90;;;;;;5015453;28;20185;-79
2021/01/28 06:23:23;;;;;;;14.18;9.05;;;4.90;99.90;;;;;;5014815;28;20533;-80
2021/01/28 06:26:04;;;;;;;12.43;8.15;;;4.90;99.90;;;;;;5019099;28;20193;-80
2021/01/28 06:28:35;;;;;;;15.60;8.85;;;4.90;99.90;;;;;;5031946;28;20237;-79
2021/01/28 06:31:14;;;;;;;12.30;6.97;;;5.00;99.90;;;;;;5016949;28;20182;-79
2021/01/28 06:34:21;;;;;;;12.85;7.43;;;5.00;99.90;;;;;;5019110;28;20196;-79
2021/01/28 06:36:56;;;;;;;11.55;6.90;;;5.00;99.90;;;;;;5004819;28;20565;-79
2021/01/28 06:39:34;;;;;;;17.50;8.25;;;5.00;99.90;;;;;;5018924;28;20520;-79
2021/01/28 06:42:26;;;;;;;12.02;8.05;;;5.00;99.90;;;;;;5018606;28;20600;-79
2021/01/28 06:44:54;;;;;;;12.00;6.93;;;5.00;99.90;;;;;;5020489;28;20174;-79
2021/01/28 06:47:48;;;;;;;11.43;6.78;;;5.50;99.90;;;;;;5020690;28;20189;-79
2021/01/28 06:50:21;;;;;;;14.70;8.32;;;6.90;99.90;;;;;;5019363;28;20174;-80
2021/01/28 06:52:53;;;;;;;16.15;8.93;;;7.80;99.90;;;;;;5018874;28;20388;-79
2021/01/28 06:55:41;;;;;;;17.45;9.02;;;8.00;99.90;;;;;;5034252;28;20209;-80
2021/01/28 06:58:21;;;;;;;13.90;7.75;;;7.70;99.90;;;;;;5019042;28;20166;-80
2021/01/28 07:00:57;;;;;;;11.68;7.68;;;7.20;99.90;;;;;;5034343;28;20174;-80
2021/01/28 07:03:31;;;;;;;14.75;7.88;;;7.20;99.90;;;;;;5016797;28;20215;-78
2021/01/28 07:06:09;;;;;;;16.05;10.07;;;6.70;99.90;;;;;;5031471;28;20727;-78
2021/01/28 07:09:16;;;;;;;13.45;9.10;;;6.50;99.90;;;;;;5016308;28;20205;-78
2021/01/28 07:11:43;;;;;;;15.80;8.07;;;6.30;99.90;;;;;;5002279;28;20187;-79
2021/01/28 07:14:15;;;;;;;18.45;7.47;;;6.00;99.90;;;;;;5015116;28;20190;-78
2021/01/28 07:17:14;;;;;;;20.95;8.80;;;6.10;99.90;;;;;;5014938;28;20206;-79
2021/01/28 07:19:49;;;;;;;16.10;6.88;;;6.10;99.90;;;;;;4996683;28;20170;-79
2021/01/28 07:22:38;;;;;;;6.68;4.68;;;5.40;99.90;;;;;;5024122;28;20172;-78
2021/01/28 07:25:22;;;;;;;5.03;3.30;;;5.00;99.90;;;;;;5015631;28;20236;-78
2021/01/28 07:27:59;;;;;;;8.05;4.45;;;4.70;99.90;;;;;;5014737;28;20181;-78
2021/01/28 07:30:40;;;;;;;7.20;2.92;;;4.70;99.90;;;;;;5016593;28;20208;-79
2021/01/28 07:33:26;;;;;;;5.20;3.10;;;4.90;99.90;;;;;;5017481;28;20205;-79
2021/01/28 07:35:56;;;;;;;8.00;3.58;;;5.10;99.90;;;;;;5020053;28;20202;-79
2021/01/28 07:38:43;;;;;;;5.75;3.42;;;5.10;99.90;;;;;;5018099;28;20183;-79
2021/01/28 07:41:09;;;;;;;8.30;4.22;;;5.30;99.90;;;;;;5000942;28;20182;-80
2021/01/28 07:43:38;;;;;;;11.10;3.27;;;5.40;99.90;;;;;;5018882;28;20169;-79
2021/01/28 07:46:21;;;;;;;4.80;3.20;;;5.30;99.90;;;;;;5018460;28;20427;-80
2021/01/28 07:49:03;;;;;;;5.43;3.05;;;5.50;99.90;;;;;;5017809;28;20183;-79
2021/01/28 07:51:39;;;;;;;4.75;3.30;;;5.50;99.90;;;;;;5015336;28;20264;-79
2021/01/28 07:54:25;;;;;;;4.78;3.15;;;5.50;99.90;;;;;;5012715;28;20166;-81
2021/01/28 07:57:10;;;;;;;6.57;3.50;;;5.50;99.90;;;;;;5008878;28;20206;-77
2021/01/28 07:59:48;;;;;;;5.97;2.95;;;5.50;99.90;;;;;;5026773;28;20186;-79
2021/01/28 08:02:25;;;;;;;4.78;3.58;;;5.40;99.90;;;;;;5018099;28;20174;-85
2021/01/28 08:05:06;;;;;;;6.82;4.60;;;5.20;99.90;;;;;;5016807;28;20173;-78
2021/01/28 08:07:39;;;;;;;5.68;4.03;;;5.00;99.90;;;;;;5013517;28;20265;-80
2021/01/28 08:10:29;;;;;;;7.30;3.90;;;5.00;99.90;;;;;;5016270;28;20178;-79
2021/01/28 08:13:02;;;;;;;5.55;3.60;;;4.80;99.90;;;;;;5013783;28;20642;-79
2021/01/28 08:15:46;;;;;;;10.10;4.63;;;4.80;99.90;;;;;;5015506;28;20213;-81
2021/01/28 08:19:02;;;;;;;8.88;5.65;;;4.90;99.90;;;;;;5017059;28;20181;-78
2021/01/28 08:21:28;;;;;;;4.45;3.60;;;5.10;99.90;;;;;;5004458;28;20187;-79
2021/01/28 08:23:54;;;;;;;7.72;4.80;;;5.00;99.90;;;;;;4997356;28;20206;-79
2021/01/28 08:26:29;;;;;;;7.60;4.68;;;5.10;99.90;;;;;;5015769;28;20218;-79
2021/01/28 08:29:04;;;;;;;9.80;4.55;;;5.00;99.90;;;;;;5018054;28;20161;-79
2021/01/28 08:31:38;;;;;;;7.55;4.20;;;4.80;99.90;;;;;;5019629;28;20180;-79
2021/01/28 08:34:07;;;;;;;7.97;4.53;;;4.80;99.90;;;;;;5017314;28;20165;-79
2021/01/28 08:36:47;;;;;;;11.27;5.53;;;4.70;99.90;;;;;;5017020;28;20210;-79
2021/01/28 08:39:18;;;;;;;8.15;4.65;;;4.70;99.90;;;;;;5016828;28;20260;-80
2021/01/28 08:41:45;;;;;;;13.07;6.30;;;4.70;99.90;;;;;;4999578;28;20178;-80
2021/01/28 08:44:14;;;;;;;8.98;5.18;;;4.70;99.90;;;;;;5017651;28;20455;-81
2021/01/28 08:46:42;;;;;;;14.35;5.63;;;4.80;99.90;;;;;;5008851;28;20613;-80
2021/01/28 08:49:19;;;;;;;10.18;4.68;;;4.80;99.90;;;;;;5001120;28;20187;-81
2021/01/28 08:51:52;;;;;;;6.88;3.78;;;4.70;99.90;;;;;;5018238;28;20225;-81
2021/01/28 08:54:22;;;;;;;9.23;4.57;;;4.70;99.90;;;;;;5018532;28;20208;-79
2021/01/28 08:56:50;;;;;;;6.25;4.53;;;4.70;99.90;;;;;;5017008;28;20214;-80
2021/01/28 08:59:18;;;;;;;7.72;5.60;;;4.70;99.90;;;;;;5016986;28;20553;-80
2021/01/28 09:01:50;;;;;;;10.15;5.78;;;4.60;99.90;;;;;;5016922;28;20700;-77
2021/01/28 09:04:29;;;;;;;7.57;3.67;;;4.70;99.90;;;;;;5031541;28;20190;-81
2021/01/28 09:06:55;;;;;;;6.97;3.60;;;4.90;99.90;;;;;;5037469;28;20202;-80
2021/01/28 09:09:25;;;;;;;10.43;4.77;;;4.90;99.90;;;;;;5036026;28;20204;-80
2021/01/28 09:11:53;;;;;;;7.95;4.35;;;4.70;99.90;;;;;;5035328;28;20436;-79
2021/01/28 09:14:28;;;;;;;6.32;4.13;;;4.80;99.90;;;;;;5026827;28;20182;-79
2021/01/28 09:17:04;;;;;;;5.28;3.75;;;4.80;99.90;;;;;;5013801;28;20206;-79
2021/01/28 09:19:32;;;;;;;7.88;4.35;;;4.60;99.90;;;;;;5015358;28;20212;-80
2021/01/28 09:22:03;;;;;;;9.13;4.57;;;4.40;99.90;;;;;;5015087;28;20224;-79
2021/01/28 09:24:43;;;;;;;6.22;4.72;;;4.30;99.90;;;;;;5013497;28;20166;-79
2021/01/28 09:27:34;;;;;;;9.63;4.70;;;4.40;99.90;;;;;;5014981;28;20198;-79
2021/01/28 09:30:20;;;;;;;7.72;4.80;;;4.50;99.90;;;;;;5014573;28;20518;-80
2021/01/28 09:32:46;;;;;;;6.47;4.18;;;4.70;99.90;;;;;;5013465;28;20166;-79
2021/01/28 09:35:19;;;;;;;7.20;4.20;;;4.40;99.90;;;;;;5014173;28;20623;-79
2021/01/28 09:38:02;;;;;;;7.95;4.53;;;4.50;99.90;;;;;;5014391;28;20452;-81
2021/01/28 09:40:32;;;;;;;10.57;5.10;;;4.50;99.90;;;;;;5025504;28;20224;-80
2021/01/28 09:43:30;;;;;;;10.20;4.75;;;4.30;99.90;;;;;;5008208;28;20249;-80
2021/01/28 09:46:06;;;;;;;7.20;4.65;;;4.40;99.90;;;;;;5025867;28;20248;-80
2021/01/28 09:48:32;;;;;;;8.45;5.45;;;4.70;99.90;;;;;;5024376;28;20227;-79
2021/01/28 09:50:57;;;;;;;10.80;4.70;;;4.70;99.90;;;;;;5007038;28;20174;-79
2021/01/28 09:53:23;;;;;;;7.73;5.40;;;4.50;99.90;;;;;;5019839;28;20170;-80
2021/01/28 09:55:51;;;;;;;7.90;4.40;;;4.60;99.90;;;;;;5015418;28;20212;-80
2021/01/28 09:58:20;;;;;;;9.43;5.30;;;4.40;99.90;;;;;;5001453;28;20561;-80
2021/01/28 10:00:46;;;;;;;9.82;5.50;;;4.30;99.90;;;;;;5020164;28;20174;-79
2021/01/28 10:03:14;;;;;;;11.32;4.55;;;4.10;99.90;;;;;;5008770;28;20181;-80
2021/01/28 10:05:40;;;;;;;9.32;5.45;;;4.10;99.90;;;;;;5009004;28;20265;-79
2021/01/28 10:08:06;;;;;;;8.40;5.37;;;4.30;99.90;;;;;;5024058;28;20185;-81
2021/01/28 10:10:33;;;;;;;6.07;4.80;;;4.40;99.90;;;;;;5008881;28;20182;-80
2021/01/28 10:13:06;;;;;;;8.88;5.03;;;4.40;99.90;;;;;;5025510;28;20180;-80
2021/01/28 10:15:34;;;;;;;13.38;4.75;;;4.30;99.90;;;;;;5023954;28;20233;-80
2021/01/28 10:18:00;;;;;;;7.95;4.63;;;4.20;99.90;;;;;;5007010;28;20326;-80
2021/01/28 10:20:26;;;;;;;7.40;4.37;;;4.20;99.90;;;;;;5024428;28;20162;-79
2021/01/28 10:22:54;;;;;;;8.82;4.70;;;4.30;99.90;;;;;;5007589;28;20417;-80
2021/01/28 10:25:21;;;;;;;6.63;3.67;;;4.50;99.90;;;;;;5025536;28;20181;-81
2021/01/28 10:27:50;;;;;;;12.40;5.43;;;4.60;99.90;;;;;;5026958;28;20174;-81
2021/01/28 10:30:18;;;;;;;9.65;5.85;;;4.50;99.90;;;;;;5008754;28;20181;-81
2021/01/28 10:32:45;;;;;;;6.55;4.85;;;4.70;99.90;;;;;;5025821;28;20170;-81
2021/01/28 10:35:15;;;;;;;10.00;5.13;;;4.70;99.90;;;;;;5025383;28;20247;-80
2021/01/28 10:37:40;;;;;;;8.25;3.95;;;4.70;99.90;;;;;;5007630;28;20174;-81
2021/01/28 10:40:09;;;;;;;10.00;4.97;;;5.00;99.90;;;;;;5006571;28;20180;-79
2021/01/28 10:42:40;;;;;;;8.00;4.78;;;4.80;99.90;;;;;;5022535;28;20201;-79
2021/01/28 10:45:17;;;;;;;21.92;6.20;;;4.70;99.90;;;;;;5019671;28;20173;-79
2021/01/28 10:47:46;;;;;;;11.57;5.72;;;4.70;99.90;;;;;;5017528;28;20181;-80
2021/01/28 10:50:12;;;;;;;10.55;5.15;;;4.60;99.90;;;;;;5023727;28;20688;-80
2021/01/28 10:52:38;;;;;;;24.70;5.95;;;4.70;99.90;;;;;;5026140;28;20185;-79
2021/01/28 10:55:06;;;;;;;12.87;4.73;;;4.80;99.90;;;;;;5024522;28;20194;-81
2021/01/28 10:57:32;;;;;;;12.05;5.80;;;4.90;99.90;;;;;;5023729;28;20593;-79
2021/01/28 10:59:58;;;;;;;11.70;6.57;;;4.40;99.90;;;;;;5023116;28;20260;-79
2021/01/28 11:02:23;;;;;;;11.80;6.00;;;4.20;99.90;;;;;;5022516;28;20174;-79
2021/01/28 11:04:49;;;;;;;8.43;4.80;;;4.20;99.90;;;;;;5021099;28;20221;-80
2021/01/28 11:07:15;;;;;;;13.77;6.73;;;4.20;99.90;;;;;;5025142;28;20220;-80
2021/01/28 11:09:40;;;;;;;8.87;5.40;;;4.20;99.90;;;;;;5024137;28;20539;-79
2021/01/28 11:12:07;;;;;;;19.10;6.63;;;4.10;99.90;;;;;;5024595;28;20201;-79
2021/01/28 11:14:33;;;;;;;9.70;6.15;;;4.20;99.90;;;;;;5004008;28;20471;-79
2021/01/28 11:17:02;;;;;;;7.22;4.50;;;4.30;99.90;;;;;;5022012;28;20209;-79
2021/01/28 11:19:27;;;;;;;9.20;5.55;;;4.40;99.90;;;;;;5024901;28;20189;-79
2021/01/28 11:21:53;;;;;;;10.63;5.30;;;4.50;99.90;;;;;;5027456;28;20544;-79
2021/01/28 11:24:18;;;;;;;12.20;4.10;;;4.50;99.90;;;;;;5009036;28;20182;-78
2021/01/28 11:26:44;;;;;;;13.20;5.27;;;4.20;99.90;;;;;;5008236;28;20669;-78
2021/01/28 11:29:10;;;;;;;10.10;5.70;;;4.20;99.90;;;;;;5020918;28;20178;-79
2021/01/28 11:31:36;;;;;;;5.80;4.30;;;4.00;99.90;;;;;;5022862;28;20178;-79
2021/01/28 11:34:03;;;;;;;8.45;4.90;;;4.00;99.90;;;;;;5020321;28;20178;-79
2021/01/28 11:36:29;;;;;;;9.23;4.80;;;4.10;99.90;;;;;;5019562;28;20202;-79
2021/01/28 11:38:55;;;;;;;10.15;4.38;;;4.10;99.90;;;;;;5016598;28;20178;-79
2021/01/28 11:41:21;;;;;;;8.77;5.03;;;4.00;99.90;;;;;;5006254;28;20209;-79
2021/01/28 11:43:47;;;;;;;13.53;6.07;;;4.10;99.90;;;;;;5005170;28;20436;-78
2021/01/28 11:46:12;;;;;;;9.33;4.80;;;4.10;99.90;;;;;;5006240;28;20734;-79
2021/01/28 11:48:39;;;;;;;9.23;4.90;;;4.00;99.90;;;;;;5023059;28;20432;-78
2021/01/28 11:51:05;;;;;;;6.15;3.80;;;4.00;99.90;;;;;;5023017;28;20669;-77
2021/01/28 11:53:31;;;;;;;10.80;4.53;;;4.10;99.90;;;;;;5019214;28;20270;-79
2021/01/28 11:55:56;;;;;;;9.53;5.10;;;4.10;99.90;;;;;;4999700;28;20234;-79
2021/01/28 11:58:35;;;;;;;8.93;4.80;;;4.20;99.90;;;;;;5018352;28;20423;-79
2021/01/28 12:01:01;;;;;;;7.30;4.22;;;4.20;99.90;;;;;;5037355;28;20657;-79
2021/01/28 12:03:26;;;;;;;8.33;5.00;;;4.20;99.90;;;;;;5028762;28;20218;-79
2021/01/28 12:05:52;;;;;;;10.03;5.77;;;4.40;99.90;;;;;;5029828;28;20190;-78
2021/01/28 12:08:18;;;;;;;15.20;5.47;;;4.30;99.90;;;;;;5024432;28;20170;-78
2021/01/28 12:10:45;;;;;;;8.37;5.00;;;4.40;99.90;;;;;;5020913;28;20170;-80
2021/01/28 12:13:11;;;;;;;9.50;4.60;;;4.30;99.90;;;;;;5017943;28;20184;-79
2021/01/28 12:15:37;;;;;;;8.02;4.43;;;4.30;99.90;;;;;;5020684;28;20206;-79
2021/01/28 12:18:02;;;;;;;9.23;4.70;;;4.30;99.90;;;;;;5020549;28;20197;-80
2021/01/28 12:20:30;;;;;;;5.37;3.70;;;4.30;99.90;;;;;;5004603;28;20181;-79
2021/01/28 12:22:57;;;;;;;9.00;5.05;;;4.40;99.90;;;;;;5014225;28;20174;-78
2021/01/28 12:25:23;;;;;;;12.43;4.65;;;4.70;99.90;;;;;;5011067;28;20664;-79
2021/01/28 12:27:51;;;;;;;6.63;5.28;;;4.90;99.90;;;;;;5021945;28;20186;-79
2021/01/28 12:30:21;;;;;;;8.60;5.07;;;4.80;99.90;;;;;;4997499;28;20242;-80
2021/01/28 12:32:47;;;;;;;8.38;4.32;;;4.90;99.90;;;;;;5021668;28;20174;-79
2021/01/28 12:35:13;;;;;;;7.50;3.75;;;4.80;99.90;;;;;;5026466;28;20276;-79
2021/01/28 12:37:39;;;;;;;7.38;3.53;;;4.80;99.90;;;;;;5026934;28;20166;-80
2021/01/28 12:40:08;;;;;;;7.17;4.10;;;4.60;99.90;;;;;;5011190;28;20185;-79
2021/01/28 12:42:34;;;;;;;6.20;3.05;;;5.00;99.90;;;;;;5012316;28;20179;-80
2021/01/28 12:45:00;;;;;;;7.35;3.92;;;5.20;99.90;;;;;;5011287;28;20174;-80
2021/01/28 12:47:26;;;;;;;8.75;3.35;;;5.30;99.90;;;;;;5022624;28;20198;-80
2021/01/28 12:49:53;;;;;;;9.50;4.10;;;5.00;99.90;;;;;;5024304;28;20188;-79
2021/01/28 12:52:19;;;;;;;9.18;4.60;;;4.60;99.90;;;;;;5022563;28;20407;-80
2021/01/28 12:54:45;;;;;;;4.80;3.65;;;4.50;99.90;;;;;;5017641;28;20182;-79
2021/01/28 12:57:10;;;;;;;6.60;3.73;;;4.60;99.90;;;;;;5017496;28;20205;-78
2021/01/28 12:59:36;;;;;;;5.80;3.50;;;4.60;99.90;;;;;;5012881;28;20411;-78
2021/01/28 13:02:02;;;;;;;8.73;4.47;;;4.60;99.90;;;;;;5021218;28;20205;-79
2021/01/28 13:04:30;;;;;;;4.67;3.43;;;4.50;99.90;;;;;;5014488;28;20214;-79
2021/01/28 13:06:55;;;;;;;5.10;4.50;;;4.30;99.90;;;;;;4998942;28;20198;-80
2021/01/28 13:09:21;;;;;;;5.33;3.30;;;4.20;99.90;;;;;;5015037;28;20182;-80
2021/01/28 13:11:46;;;;;;;5.33;3.20;;;3.90;99.90;;;;;;5017360;28;20649;-79
2021/01/28 13:14:12;;;;;;;6.43;3.70;;;3.90;99.90;;;;;;5015846;28;20273;-80